sensor_id;sensor_type;location;lat;lon;timestamp;P1;durP1;ratioP1;P2;durP2;ratioP2
37169;SDS011;23062;13.952;100.608;2023-04-03T00:00:20;27.00;;;20.00;;
37169;SDS011;23062;13.952;100.608;2023-04-03T00:04:49;30.00;;;22.00;;
37169;SDS011;23062;13.952;100.608;2023-04-03T00:09:14;30.00;;;22.00;;
37169;SDS011;23062;13.952;100.608;2023-04-03T00:13:40;26.00;;;20.00;;
37169;SDS011;23062;13.952;100.608;2023-04-03T00:18:05;29.00;;;21.00;;
37169;SDS011;23062;13.952;100.608;2023-04-03T00:22:32;35.00;;;25.00;;
37169;SDS011;23062;13.952;100.608;2023-04-03T00:26:57;31.00;;;24.00;;
37169;SDS011;23062;13.952;100.608;2023-04-03T00:31:22;29.00;;;21.00;;
37169;SDS011;23062;13.952;100.608;2023-04-03T00:35:48;32.00;;;24.00;;
37169;SDS011;23062;13.952;100.608;2023-04-03T00:40:13;32.00;;;25.00;;
37169;SDS011;23062;13.952;100.608;2023-04-03T00:49:09;30.00;;;23.00;;
37169;SDS011;23062;13.952;100.608;2023-04-03T00:53:40;31.00;;;24.00;;
37169;SDS011;23062;13.952;100.608;2023-04-03T00:58:09;36.00;;;27.00;;
37169;SDS011;23062;13.952;100.608;2023-04-03T01:02:35;36.00;;;28.00;;
37169;SDS011;23062;13.952;100.608;2023-04-03T01:07:04;35.00;;;26.00;;
37169;SDS011;23062;13.952;100.608;2023-04-03T01:11:31;39.00;;;28.00;;
37169;SDS011;23062;13.952;100.608;2023-04-03T01:15:56;34.00;;;25.00;;
37169;SDS011;23062;13.952;100.608;2023-04-03T01:25:05;33.00;;;25.00;;
37169;SDS011;23062;13.952;100.608;2023-04-03T01:29:31;33.00;;;25.00;;
37169;SDS011;23062;13.952;100.608;2023-04-03T01:33:56;35.00;;;26.00;;
37169;SDS011;23062;13.952;100.608;2023-04-03T01:38:29;36.00;;;25.20;;
37169;SDS011;23062;13.952;100.608;2023-04-03T01:42:54;34.00;;;25.00;;
37169;SDS011;23062;13.952;100.608;2023-04-03T01:47:23;35.00;;;26.00;;
37169;SDS011;23062;13.952;100.608;2023-04-03T01:51:48;31.00;;;24.00;;
37169;SDS011;23062;13.952;100.608;2023-04-03T01:56:13;34.00;;;26.00;;
37169;SDS011;23062;13.952;100.608;2023-04-03T02:00:39;38.00;;;28.00;;
37169;SDS011;23062;13.952;100.608;2023-04-03T02:05:12;38.00;;;28.00;;
37169;SDS011;23062;13.952;100.608;2023-04-03T02:09:40;37.00;;;28.00;;
37169;SDS011;23062;13.952;100.608;2023-04-03T02:14:07;42.00;;;31.00;;
37169;SDS011;23062;13.952;100.608;2023-04-03T02:18:32;40.00;;;30.00;;
37169;SDS011;23062;13.952;100.608;2023-04-03T02:22:58;47.00;;;34.00;;
37169;SDS011;23062;13.952;100.608;2023-04-03T02:27:27;50.00;;;37.00;;
37169;SDS011;23062;13.952;100.608;2023-04-03T02:31:55;54.00;;;40.00;;
37169;SDS011;23062;13.952;100.608;2023-04-03T02:36:23;52.00;;;38.00;;
37169;SDS011;23062;13.952;100.608;2023-04-03T02:40:48;49.00;;;37.00;;
37169;SDS011;23062;13.952;100.608;2023-04-03T02:45:13;50.00;;;38.00;;
37169;SDS011;23062;13.952;100.608;2023-04-03T02:49:38;48.00;;;35.00;;
37169;SDS011;23062;13.952;100.608;2023-04-03T02:54:09;46.00;;;35.00;;
37169;SDS011;23062;13.952;100.608;2023-04-03T02:58:34;52.00;;;38.00;;
37169;SDS011;23062;13.952;100.608;2023-04-03T03:03:01;47.00;;;36.00;;
37169;SDS011;23062;13.952;100.608;2023-04-03T03:07:29;46.00;;;34.00;;
37169;SDS011;23062;13.952;100.608;2023-04-03T03:11:55;51.00;;;38.00;;
37169;SDS011;23062;13.952;100.608;2023-04-03T03:16:20;51.00;;;37.00;;
37169;SDS011;23062;13.952;100.608;2023-04-03T03:20:51;48.00;;;35.00;;
37169;SDS011;23062;13.952;100.608;2023-04-03T03:25:17;48.00;;;37.00;;
37169;SDS011;23062;13.952;100.608;2023-04-03T03:29:42;48.00;;;38.00;;
37169;SDS011;23062;13.952;100.608;2023-04-03T03:34:09;49.00;;;39.00;;
37169;SDS011;23062;13.952;100.608;2023-04-03T03:38:37;56.00;;;44.00;;
37169;SDS011;23062;13.952;100.608;2023-04-03T03:43:02;50.00;;;37.00;;
37169;SDS011;23062;13.952;100.608;2023-04-03T03:47:30;49.00;;;37.00;;
37169;SDS011;23062;13.952;100.608;2023-04-03T03:51:55;52.00;;;39.00;;
37169;SDS011;23062;13.952;100.608;2023-04-03T03:56:20;47.00;;;35.00;;
37169;SDS011;23062;13.952;100.608;2023-04-03T04:00:44;50.00;;;37.00;;
37169;SDS011;23062;13.952;100.608;2023-04-03T04:05:10;49.00;;;38.00;;
37169;SDS011;23062;13.952;100.608;2023-04-03T04:09:35;51.00;;;38.00;;
37169;SDS011;23062;13.952;100.608;2023-04-03T04:14:03;51.00;;;37.00;;
37169;SDS011;23062;13.952;100.608;2023-04-03T04:18:30;49.00;;;38.00;;
37169;SDS011;23062;13.952;100.608;2023-04-03T04:22:55;49.00;;;36.00;;
37169;SDS011;23062;13.952;100.608;2023-04-03T04:27:21;46.00;;;36.00;;
37169;SDS011;23062;13.952;100.608;2023-04-03T04:31:53;46.00;;;36.00;;
37169;SDS011;23062;13.952;100.608;2023-04-03T04:36:18;48.00;;;37.00;;
37169;SDS011;23062;13.952;100.608;2023-04-03T04:40:44;50.00;;;37.00;;
37169;SDS011;23062;13.952;100.608;2023-04-03T04:45:10;48.00;;;38.00;;
37169;SDS011;23062;13.952;100.608;2023-04-03T04:49:35;49.00;;;37.00;;
37169;SDS011;23062;13.952;100.608;2023-04-03T04:54:00;52.00;;;38.00;;
37169;SDS011;23062;13.952;100.608;2023-04-03T04:58:26;47.00;;;37.00;;
37169;SDS011;23062;13.952;100.608;2023-04-03T05:02:54;52.00;;;39.00;;
37169;SDS011;23062;13.952;100.608;2023-04-03T05:07:20;53.00;;;39.00;;
37169;SDS011;23062;13.952;100.608;2023-04-03T05:11:47;52.00;;;39.00;;
37169;SDS011;23062;13.952;100.608;2023-04-03T05:16:12;52.00;;;38.00;;
37169;SDS011;23062;13.952;100.608;2023-04-03T05:20:38;54.00;;;40.00;;
37169;SDS011;23062;13.952;100.608;2023-04-03T05:25:10;50.00;;;39.00;;
37169;SDS011;23062;13.952;100.608;2023-04-03T05:29:43;48.00;;;35.00;;
37169;SDS011;23062;13.952;100.608;2023-04-03T05:34:09;49.00;;;37.00;;
37169;SDS011;23062;13.952;100.608;2023-04-03T05:38:34;54.00;;;39.00;;
37169;SDS011;23062;13.952;100.608;2023-04-03T05:43:03;53.00;;;39.00;;
37169;SDS011;23062;13.952;100.608;2023-04-03T05:47:29;51.00;;;39.00;;
37169;SDS011;23062;13.952;100.608;2023-04-03T05:51:57;47.00;;;37.00;;
37169;SDS011;23062;13.952;100.608;2023-04-03T05:56:22;52.00;;;39.00;;
37169;SDS011;23062;13.952;100.608;2023-04-03T06:00:51;49.00;;;38.00;;
37169;SDS011;23062;13.952;100.608;2023-04-03T06:05:16;52.00;;;39.00;;
37169;SDS011;23062;13.952;100.608;2023-04-03T06:09:42;46.00;;;35.00;;
37169;SDS011;23062;13.952;100.608;2023-04-03T06:14:09;49.00;;;36.00;;
37169;SDS011;23062;13.952;100.608;2023-04-03T06:18:35;45.00;;;34.00;;
37169;SDS011;23062;13.952;100.608;2023-04-03T06:23:04;51.00;;;38.00;;
37169;SDS011;23062;13.952;100.608;2023-04-03T06:27:29;49.00;;;36.00;;
37169;SDS011;23062;13.952;100.608;2023-04-03T06:31:55;48.00;;;36.00;;
37169;SDS011;23062;13.952;100.608;2023-04-03T06:36:20;47.00;;;36.00;;
37169;SDS011;23062;13.952;100.608;2023-04-03T06:40:45;48.00;;;35.00;;
37169;SDS011;23062;13.952;100.608;2023-04-03T06:45:17;55.00;;;41.00;;
37169;SDS011;23062;13.952;100.608;2023-04-03T06:49:44;53.00;;;40.00;;
37169;SDS011;23062;13.952;100.608;2023-04-03T06:54:17;50.00;;;39.00;;
37169;SDS011;23062;13.952;100.608;2023-04-03T06:58:43;48.00;;;38.00;;
37169;SDS011;23062;13.952;100.608;2023-04-03T07:03:12;53.00;;;41.00;;
37169;SDS011;23062;13.952;100.608;2023-04-03T07:07:37;53.00;;;36.40;;
37169;SDS011;23062;13.952;100.608;2023-04-03T07:12:03;48.00;;;38.00;;
37169;SDS011;23062;13.952;100.608;2023-04-03T07:16:28;57.00;;;45.00;;
37169;SDS011;23062;13.952;100.608;2023-04-03T07:20:53;49.00;;;38.00;;
37169;SDS011;23062;13.952;100.608;2023-04-03T07:25:19;55.00;;;42.00;;
37169;SDS011;23062;13.952;100.608;2023-04-03T07:29:45;53.00;;;41.00;;
37169;SDS011;23062;13.952;100.608;2023-04-03T07:34:11;56.00;;;43.00;;
37169;SDS011;23062;13.952;100.608;2023-04-03T07:38:36;56.00;;;41.00;;
37169;SDS011;23062;13.952;100.608;2023-04-03T07:43:02;53.00;;;42.00;;
37169;SDS011;23062;13.952;100.608;2023-04-03T07:47:28;56.00;;;44.00;;
37169;SDS011;23062;13.952;100.608;2023-04-03T07:51:56;58.00;;;43.00;;
37169;SDS011;23062;13.952;100.608;2023-04-03T07:56:24;55.00;;;43.00;;
37169;SDS011;23062;13.952;100.608;2023-04-03T08:00:50;55.00;;;43.00;;
37169;SDS011;23062;13.952;100.608;2023-04-03T08:05:20;58.00;;;44.00;;
37169;SDS011;23062;13.952;100.608;2023-04-03T08:09:45;54.00;;;42.00;;
37169;SDS011;23062;13.952;100.608;2023-04-03T08:14:11;57.00;;;42.00;;
37169;SDS011;23062;13.952;100.608;2023-04-03T08:18:38;56.00;;;44.00;;
37169;SDS011;23062;13.952;100.608;2023-04-03T08:23:03;54.00;;;42.00;;
37169;SDS011;23062;13.952;100.608;2023-04-03T08:27:30;59.00;;;44.00;;
37169;SDS011;23062;13.952;100.608;2023-04-03T08:31:56;56.00;;;42.00;;
37169;SDS011;23062;13.952;100.608;2023-04-03T08:36:22;62.00;;;47.00;;
37169;SDS011;23062;13.952;100.608;2023-04-03T08:40:59;59.00;;;44.00;;
37169;SDS011;23062;13.952;100.608;2023-04-03T08:50:14;58.00;;;45.00;;
37169;SDS011;23062;13.952;100.608;2023-04-03T08:54:48;55.00;;;42.00;;
37169;SDS011;23062;13.952;100.608;2023-04-03T08:59:16;52.00;;;41.00;;
37169;SDS011;23062;13.952;100.608;2023-04-03T09:03:42;58.00;;;43.00;;
37169;SDS011;23062;13.952;100.608;2023-04-03T09:12:38;58.00;;;45.00;;
37169;SDS011;23062;13.952;100.608;2023-04-03T09:21:44;58.00;;;45.00;;
37169;SDS011;23062;13.952;100.608;2023-04-03T09:26:13;62.00;;;47.00;;
37169;SDS011;23062;13.952;100.608;2023-04-03T09:30:49;63.00;;;47.00;;
37169;SDS011;23062;13.952;100.608;2023-04-03T09:35:30;59.00;;;45.00;;
37169;SDS011;23062;13.952;100.608;2023-04-03T09:39:57;61.00;;;47.00;;
37169;SDS011;23062;13.952;100.608;2023-04-03T09:44:24;59.00;;;46.00;;
37169;SDS011;23062;13.952;100.608;2023-04-03T09:48:51;60.00;;;44.00;;
37169;SDS011;23062;13.952;100.608;2023-04-03T09:53:27;60.00;;;44.00;;
37169;SDS011;23062;13.952;100.608;2023-04-03T09:57:51;59.00;;;44.00;;
37169;SDS011;23062;13.952;100.608;2023-04-03T10:02:22;55.00;;;41.00;;
37169;SDS011;23062;13.952;100.608;2023-04-03T10:06:52;59.00;;;45.00;;
37169;SDS011;23062;13.952;100.608;2023-04-03T10:11:18;64.00;;;47.00;;
37169;SDS011;23062;13.952;100.608;2023-04-03T10:15:46;59.00;;;45.00;;
37169;SDS011;23062;13.952;100.608;2023-04-03T10:20:26;64.00;;;48.00;;
37169;SDS011;23062;13.952;100.608;2023-04-03T10:24:51;58.00;;;44.00;;
37169;SDS011;23062;13.952;100.608;2023-04-03T10:34:13;59.00;;;45.00;;
37169;SDS011;23062;13.952;100.608;2023-04-03T10:43:22;53.00;;;42.00;;
37169;SDS011;23062;13.952;100.608;2023-04-03T10:57:18;55.00;;;42.00;;
37169;SDS011;23062;13.952;100.608;2023-04-03T11:01:51;54.00;;;40.00;;
37169;SDS011;23062;13.952;100.608;2023-04-03T11:06:19;53.00;;;41.00;;
37169;SDS011;23062;13.952;100.608;2023-04-03T11:10:46;53.00;;;41.00;;
37169;SDS011;23062;13.952;100.608;2023-04-03T11:15:16;57.00;;;42.00;;
37169;SDS011;23062;13.952;100.608;2023-04-03T11:19:57;54.00;;;41.00;;
37169;SDS011;23062;13.952;100.608;2023-04-03T11:24:26;47.00;;;37.00;;
37169;SDS011;23062;13.952;100.608;2023-04-03T11:28:53;54.00;;;41.00;;
37169;SDS011;23062;13.952;100.608;2023-04-03T11:38:21;49.00;;;36.00;;
37169;SDS011;23062;13.952;100.608;2023-04-03T11:42:52;46.00;;;36.00;;
37169;SDS011;23062;13.952;100.608;2023-04-03T11:52:09;47.00;;;34.00;;
37169;SDS011;23062;13.952;100.608;2023-04-03T11:56:34;40.00;;;32.00;;
37169;SDS011;23062;13.952;100.608;2023-04-03T12:01:00;43.00;;;33.00;;
37169;SDS011;23062;13.952;100.608;2023-04-03T12:05:27;43.00;;;33.00;;
37169;SDS011;23062;13.952;100.608;2023-04-03T12:09:54;45.00;;;34.00;;
37169;SDS011;23062;13.952;100.608;2023-04-03T12:14:23;37.00;;;29.00;;
37169;SDS011;23062;13.952;100.608;2023-04-03T12:19:00;43.00;;;31.00;;
37169;SDS011;23062;13.952;100.608;2023-04-03T12:23:35;44.00;;;34.00;;
37169;SDS011;23062;13.952;100.608;2023-04-03T12:28:04;45.00;;;33.00;;
37169;SDS011;23062;13.952;100.608;2023-04-03T12:42:22;39.00;;;30.00;;
37169;SDS011;23062;13.952;100.608;2023-04-03T12:47:08;44.00;;;32.00;;
37169;SDS011;23062;13.952;100.608;2023-04-03T12:51:34;42.00;;;31.00;;
37169;SDS011;23062;13.952;100.608;2023-04-03T13:05:39;40.00;;;29.00;;
37169;SDS011;23062;13.952;100.608;2023-04-03T13:14:39;37.00;;;29.00;;
37169;SDS011;23062;13.952;100.608;2023-04-03T13:19:14;33.00;;;26.00;;
37169;SDS011;23062;13.952;100.608;2023-04-03T13:23:35;34.00;;;27.00;;
37169;SDS011;23062;13.952;100.608;2023-04-03T13:28:02;32.00;;;21.67;;
37169;SDS011;23062;13.952;100.608;2023-04-03T13:32:30;35.00;;;26.00;;
37169;SDS011;23062;13.952;100.608;2023-04-03T13:36:58;37.00;;;28.00;;
37169;SDS011;23062;13.952;100.608;2023-04-03T13:41:26;32.00;;;25.00;;
37169;SDS011;23062;13.952;100.608;2023-04-03T13:46:03;34.00;;;26.00;;
37169;SDS011;23062;13.952;100.608;2023-04-03T13:50:31;37.00;;;27.00;;
37169;SDS011;23062;13.952;100.608;2023-04-03T13:55:01;35.00;;;27.00;;
37169;SDS011;23062;13.952;100.608;2023-04-03T13:59:30;34.00;;;25.00;;
37169;SDS011;23062;13.952;100.608;2023-04-03T14:03:58;33.00;;;24.00;;
37169;SDS011;23062;13.952;100.608;2023-04-03T14:08:25;35.00;;;26.00;;
37169;SDS011;23062;13.952;100.608;2023-04-03T14:12:51;34.00;;;26.00;;
37169;SDS011;23062;13.952;100.608;2023-04-03T14:17:19;29.00;;;22.00;;
37169;SDS011;23062;13.952;100.608;2023-04-03T14:21:55;36.00;;;27.00;;
37169;SDS011;23062;13.952;100.608;2023-04-03T14:26:20;34.00;;;25.00;;
37169;SDS011;23062;13.952;100.608;2023-04-03T14:30:46;30.00;;;23.00;;
37169;SDS011;23062;13.952;100.608;2023-04-03T14:35:12;33.00;;;25.00;;
37169;SDS011;23062;13.952;100.608;2023-04-03T14:39:38;28.00;;;19.07;;
37169;SDS011;23062;13.952;100.608;2023-04-03T14:44:07;34.00;;;25.00;;
37169;SDS011;23062;13.952;100.608;2023-04-03T14:48:33;31.00;;;24.00;;
37169;SDS011;23062;13.952;100.608;2023-04-03T14:52:58;31.00;;;24.00;;
37169;SDS011;23062;13.952;100.608;2023-04-03T14:57:25;30.00;;;24.00;;
37169;SDS011;23062;13.952;100.608;2023-04-03T15:01:52;33.00;;;24.00;;
37169;SDS011;23062;13.952;100.608;2023-04-03T15:06:24;31.00;;;24.00;;
37169;SDS011;23062;13.952;100.608;2023-04-03T15:10:53;34.00;;;25.00;;
37169;SDS011;23062;13.952;100.608;2023-04-03T15:15:37;32.00;;;24.00;;
37169;SDS011;23062;13.952;100.608;2023-04-03T15:20:18;31.00;;;22.40;;
37169;SDS011;23062;13.952;100.608;2023-04-03T15:24:45;35.00;;;26.00;;
37169;SDS011;23062;13.952;100.608;2023-04-03T15:29:14;38.00;;;29.00;;
37169;SDS011;23062;13.952;100.608;2023-04-03T15:33:39;34.00;;;26.00;;
37169;SDS011;23062;13.952;100.608;2023-04-03T15:38:05;30.00;;;24.00;;
37169;SDS011;23062;13.952;100.608;2023-04-03T15:42:32;32.00;;;25.00;;
37169;SDS011;23062;13.952;100.608;2023-04-03T15:46:57;35.00;;;26.00;;
37169;SDS011;23062;13.952;100.608;2023-04-03T15:51:23;32.00;;;24.00;;
37169;SDS011;23062;13.952;100.608;2023-04-03T15:55:49;30.00;;;23.00;;
37169;SDS011;23062;13.952;100.608;2023-04-03T16:00:15;34.00;;;25.00;;
37169;SDS011;23062;13.952;100.608;2023-04-03T16:04:43;35.00;;;25.00;;
37169;SDS011;23062;13.952;100.608;2023-04-03T16:09:09;33.00;;;26.00;;
37169;SDS011;23062;13.952;100.608;2023-04-03T16:13:35;37.00;;;27.00;;
37169;SDS011;23062;13.952;100.608;2023-04-03T16:18:02;31.00;;;24.00;;
37169;SDS011;23062;13.952;100.608;2023-04-03T16:22:32;35.00;;;26.00;;
37169;SDS011;23062;13.952;100.608;2023-04-03T16:26:56;36.00;;;26.00;;
37169;SDS011;23062;13.952;100.608;2023-04-03T16:31:23;33.00;;;26.00;;
37169;SDS011;23062;13.952;100.608;2023-04-03T16:35:49;31.00;;;24.00;;
37169;SDS011;23062;13.952;100.608;2023-04-03T16:40:15;33.00;;;24.00;;
37169;SDS011;23062;13.952;100.608;2023-04-03T16:44:40;36.00;;;27.00;;
37169;SDS011;23062;13.952;100.608;2023-04-03T16:49:07;33.00;;;25.00;;
37169;SDS011;23062;13.952;100.608;2023-04-03T16:53:36;37.00;;;29.00;;
37169;SDS011;23062;13.952;100.608;2023-04-03T16:58:08;35.00;;;25.00;;
37169;SDS011;23062;13.952;100.608;2023-04-03T17:02:33;34.00;;;25.00;;
37169;SDS011;23062;13.952;100.608;2023-04-03T17:07:02;34.00;;;26.00;;
37169;SDS011;23062;13.952;100.608;2023-04-03T17:11:35;32.00;;;21.67;;
37169;SDS011;23062;13.952;100.608;2023-04-03T17:16:01;36.00;;;27.00;;
37169;SDS011;23062;13.952;100.608;2023-04-03T17:20:29;35.00;;;25.00;;
37169;SDS011;23062;13.952;100.608;2023-04-03T17:24:56;34.00;;;26.00;;
37169;SDS011;23062;13.952;100.608;2023-04-03T17:29:21;33.00;;;26.00;;
37169;SDS011;23062;13.952;100.608;2023-04-03T17:33:46;34.00;;;26.00;;
37169;SDS011;23062;13.952;100.608;2023-04-03T17:38:11;34.00;;;26.00;;
37169;SDS011;23062;13.952;100.608;2023-04-03T17:42:37;33.00;;;25.00;;
37169;SDS011;23062;13.952;100.608;2023-04-03T17:47:03;32.00;;;25.00;;
37169;SDS011;23062;13.952;100.608;2023-04-03T17:51:29;36.00;;;27.00;;
37169;SDS011;23062;13.952;100.608;2023-04-03T17:56:04;37.00;;;27.00;;
37169;SDS011;23062;13.952;100.608;2023-04-03T18:00:38;33.00;;;25.00;;
37169;SDS011;23062;13.952;100.608;2023-04-03T18:05:04;32.00;;;25.00;;
37169;SDS011;23062;13.952;100.608;2023-04-03T18:09:32;38.00;;;27.00;;
37169;SDS011;23062;13.952;100.608;2023-04-03T18:13:59;31.00;;;24.00;;
37169;SDS011;23062;13.952;100.608;2023-04-03T18:18:27;39.00;;;28.00;;
37169;SDS011;23062;13.952;100.608;2023-04-03T18:22:55;33.00;;;25.00;;
37169;SDS011;23062;13.952;100.608;2023-04-03T18:27:21;35.00;;;26.00;;
37169;SDS011;23062;13.952;100.608;2023-04-03T18:31:50;30.00;;;23.00;;
37169;SDS011;23062;13.952;100.608;2023-04-03T18:36:18;32.00;;;25.00;;
37169;SDS011;23062;13.952;100.608;2023-04-03T18:40:44;33.00;;;24.00;;
37169;SDS011;23062;13.952;100.608;2023-04-03T18:45:11;29.00;;;22.00;;
37169;SDS011;23062;13.952;100.608;2023-04-03T18:49:38;36.00;;;26.00;;
37169;SDS011;23062;13.952;100.608;2023-04-03T18:54:05;35.00;;;26.00;;
37169;SDS011;23062;13.952;100.608;2023-04-03T18:58:31;32.00;;;24.00;;
37169;SDS011;23062;13.952;100.608;2023-04-03T19:02:57;33.00;;;25.00;;
37169;SDS011;23062;13.952;100.608;2023-04-03T19:07:23;34.00;;;25.00;;
37169;SDS011;23062;13.952;100.608;2023-04-03T19:11:49;35.00;;;27.00;;
37169;SDS011;23062;13.952;100.608;2023-04-03T19:16:18;33.00;;;26.00;;
37169;SDS011;23062;13.952;100.608;2023-04-03T19:20:44;31.00;;;24.00;;
37169;SDS011;23062;13.952;100.608;2023-04-03T19:25:09;34.00;;;26.00;;
37169;SDS011;23062;13.952;100.608;2023-04-03T19:29:35;32.00;;;24.00;;
37169;SDS011;23062;13.952;100.608;2023-04-03T19:34:01;34.00;;;26.00;;
37169;SDS011;23062;13.952;100.608;2023-04-03T19:38:27;36.00;;;28.00;;
37169;SDS011;23062;13.952;100.608;2023-04-03T19:42:56;33.00;;;24.00;;
37169;SDS011;23062;13.952;100.608;2023-04-03T19:47:24;40.00;;;30.00;;
37169;SDS011;23062;13.952;100.608;2023-04-03T19:51:51;42.00;;;33.00;;
37169;SDS011;23062;13.952;100.608;2023-04-03T19:56:17;44.00;;;32.00;;
37169;SDS011;23062;13.952;100.608;2023-04-03T20:00:44;37.00;;;29.00;;
37169;SDS011;23062;13.952;100.608;2023-04-03T20:05:09;38.00;;;30.00;;
37169;SDS011;23062;13.952;100.608;2023-04-03T20:09:34;42.00;;;31.00;;
37169;SDS011;23062;13.952;100.608;2023-04-03T20:14:03;41.00;;;31.00;;
37169;SDS011;23062;13.952;100.608;2023-04-03T20:18:29;42.00;;;31.00;;
37169;SDS011;23062;13.952;100.608;2023-04-03T20:22:55;39.00;;;30.00;;
37169;SDS011;23062;13.952;100.608;2023-04-03T20:27:21;43.00;;;32.00;;
37169;SDS011;23062;13.952;100.608;2023-04-03T20:31:46;44.00;;;33.00;;
37169;SDS011;23062;13.952;100.608;2023-04-03T20:36:12;42.00;;;31.00;;
37169;SDS011;23062;13.952;100.608;2023-04-03T20:40:37;43.00;;;31.00;;
37169;SDS011;23062;13.952;100.608;2023-04-03T20:45:04;40.00;;;31.00;;
37169;SDS011;23062;13.952;100.608;2023-04-03T20:49:30;44.00;;;33.00;;
37169;SDS011;23062;13.952;100.608;2023-04-03T20:53:55;45.00;;;33.00;;
37169;SDS011;23062;13.952;100.608;2023-04-03T20:58:20;39.00;;;30.00;;
37169;SDS011;23062;13.952;100.608;2023-04-03T21:02:46;48.00;;;35.00;;
37169;SDS011;23062;13.952;100.608;2023-04-03T21:21:45;39.00;;;29.00;;
37169;SDS011;23062;13.952;100.608;2023-04-03T21:26:11;38.00;;;30.00;;
37169;SDS011;23062;13.952;100.608;2023-04-03T21:30:36;35.00;;;28.00;;
37169;SDS011;23062;13.952;100.608;2023-04-03T21:35:01;41.00;;;32.00;;
37169;SDS011;23062;13.952;100.608;2023-04-03T21:39:31;40.00;;;30.00;;
37169;SDS011;23062;13.952;100.608;2023-04-03T21:43:58;37.00;;;29.00;;
37169;SDS011;23062;13.952;100.608;2023-04-03T21:48:24;37.00;;;29.00;;
37169;SDS011;23062;13.952;100.608;2023-04-03T21:52:53;38.00;;;27.00;;
37169;SDS011;23062;13.952;100.608;2023-04-03T21:57:19;40.00;;;29.00;;
37169;SDS011;23062;13.952;100.608;2023-04-03T22:01:45;35.00;;;27.00;;
37169;SDS011;23062;13.952;100.608;2023-04-03T22:06:11;38.00;;;28.00;;
37169;SDS011;23062;13.952;100.608;2023-04-03T22:10:39;36.00;;;28.00;;
37169;SDS011;23062;13.952;100.608;2023-04-03T22:15:04;34.00;;;25.00;;
37169;SDS011;23062;13.952;100.608;2023-04-03T22:19:32;33.00;;;26.00;;
37169;SDS011;23062;13.952;100.608;2023-04-03T22:23:57;37.00;;;27.00;;
37169;SDS011;23062;13.952;100.608;2023-04-03T22:28:24;43.00;;;31.00;;
37169;SDS011;23062;13.952;100.608;2023-04-03T22:32:49;40.00;;;30.00;;
37169;SDS011;23062;13.952;100.608;2023-04-03T22:37:20;39.00;;;29.00;;
37169;SDS011;23062;13.952;100.608;2023-04-03T22:41:45;39.00;;;29.00;;
37169;SDS011;23062;13.952;100.608;2023-04-03T22:46:12;36.00;;;27.00;;
37169;SDS011;23062;13.952;100.608;2023-04-03T22:50:37;36.00;;;28.00;;
37169;SDS011;23062;13.952;100.608;2023-04-03T22:55:04;37.00;;;27.00;;
37169;SDS011;23062;13.952;100.608;2023-04-03T22:59:30;37.00;;;27.00;;
37169;SDS011;23062;13.952;100.608;2023-04-03T23:03:56;32.00;;;23.00;;
37169;SDS011;23062;13.952;100.608;2023-04-03T23:08:21;35.00;;;28.00;;
37169;SDS011;23062;13.952;100.608;2023-04-03T23:12:47;33.00;;;22.53;;
37169;SDS011;23062;13.952;100.608;2023-04-03T23:17:16;35.00;;;26.00;;
37169;SDS011;23062;13.952;100.608;2023-04-03T23:21:42;35.00;;;26.00;;
37169;SDS011;23062;13.952;100.608;2023-04-03T23:26:10;31.00;;;24.00;;
37169;SDS011;23062;13.952;100.608;2023-04-03T23:30:35;37.00;;;27.00;;
37169;SDS011;23062;13.952;100.608;2023-04-03T23:35:00;37.00;;;28.00;;
37169;SDS011;23062;13.952;100.608;2023-04-03T23:39:28;36.00;;;26.00;;
37169;SDS011;23062;13.952;100.608;2023-04-03T23:43:55;35.00;;;25.00;;
37169;SDS011;23062;13.952;100.608;2023-04-03T23:48:23;33.00;;;25.00;;
37169;SDS011;23062;13.952;100.608;2023-04-03T23:52:49;32.00;;;25.00;;
37169;SDS011;23062;13.952;100.608;2023-04-03T23:57:16;36.00;;;28.00;;
